AFR158M LFPG-KDFW
Flight info
| Callsign | AFR158M |
|---|---|
| Flight time | N/A |
| Altitude | 36000 |
| Route | ATREX DCT VESAN DCT RATUK DCT SOVAT L613 SANDY DCT OKSAW DCT TEWXI DCT LIPGO DCT REVNU DCT SUNOT/M084F360 DCT 58N020W 5830N03000W 58N040W 57N050W DCT HOIST/N0480F360 N754B OMTOL/N0489F400 N754B MT DCT TVC DCT BAE DCT WELTS DCT SGF DCT RZC DCT FSM DCT RRNET BRDJE5 |
| Aircraft | A359/H-SDE2E3GHIJ3J4J5LM1ORWXY/LB1D1 |
Departure
| Time | 2026-04-30 15:18 |
|---|---|
| Airport | Charles de Gaulle International Airport (LFPG) |
Arrival
| Time | N/A |
|---|---|
| Airport | Dallas Fort Worth International Airport (KDFW) |
| Time | Latitude | Longitude | Altitude | Speed | Heading |
|---|---|---|---|---|---|
| 2026-04-30 14:33 | 49.00328 | 2.58991 | 363 ft | 0 kts | 84° |
| 2026-04-30 14:34 | 49.00331 | 2.59022 | 365 ft | 0 kts | 83° |
| 2026-04-30 14:35 | 49.00206 | 2.58635 | 368 ft | 0 kts | 262° |
| 2026-04-30 14:45 | 49.00207 | 2.58637 | 360 ft | 0 kts | 262° |
| 2026-04-30 14:45 | 49.00206 | 2.58627 | 360 ft | 0 kts | 262° |
| 2026-04-30 14:48 | 49.00176 | 2.56658 | 367 ft | 0 kts | 12° |
| 2026-04-30 14:49 | 49.00191 | 2.56569 | 366 ft | 0 kts | 18° |
| 2026-04-30 15:08 | 49.00140 | 2.56544 | 363 ft | 1 kts | 17° |
| 2026-04-30 15:09 | 49.00107 | 2.56496 | 360 ft | 4 kts | 83° |
| 2026-04-30 15:09 | 49.00103 | 2.56419 | 367 ft | 4 kts | 85° |
| 2026-04-30 15:10 | 49.00103 | 2.56408 | 367 ft | 0 kts | 85° |
| 2026-04-30 15:11 | 49.00103 | 2.56417 | 367 ft | 3 kts | 85° |
| 2026-04-30 15:12 | 49.00039 | 2.56570 | 367 ft | 7 kts | 172° |
| 2026-04-30 15:13 | 48.99935 | 2.56585 | 362 ft | 8 kts | 175° |
| 2026-04-30 15:14 | 48.99805 | 2.56137 | 367 ft | 15 kts | 265° |
| 2026-04-30 15:14 | 48.99678 | 2.55817 | 368 ft | 13 kts | 174° |
| 2026-04-30 15:16 | 48.99608 | 2.55925 | 367 ft | 0 kts | 86° |
| 2026-04-30 15:17 | 48.99744 | 2.58541 | 379 ft | 155 kts | 86° |
| 2026-04-30 15:18 | 49.00206 | 2.67267 | 3352 ft | 171 kts | 87° |
| 2026-04-30 15:19 | 49.00502 | 2.72877 | 4608 ft | 186 kts | 90° |
| 2026-04-30 17:39 | 58.33550 | -24.72461 | 40214 ft | 465 kts | 276° |
| 2026-04-30 17:42 | 58.36578 | -25.33576 | 40203 ft | 463 kts | 276° |
| 2026-04-30 17:43 | 58.37976 | -25.64016 | 40206 ft | 462 kts | 276° |
| 2026-04-30 17:44 | 58.39560 | -26.00633 | 40201 ft | 461 kts | 275° |
| 2026-04-30 17:47 | 58.41728 | -26.55289 | 40195 ft | 459 kts | 275° |
| 2026-04-30 17:48 | 58.43253 | -26.97837 | 40191 ft | 459 kts | 275° |
| 2026-04-30 17:50 | 58.44818 | -27.46341 | 40184 ft | 457 kts | 274° |
| 2026-04-30 17:52 | 58.45815 | -27.80674 | 40182 ft | 457 kts | 274° |
| 2026-04-30 17:54 | 58.47207 | -28.35153 | 40167 ft | 456 kts | 273° |
| 2026-04-30 17:56 | 58.48250 | -28.83594 | 40162 ft | 456 kts | 272° |
| 2026-04-30 17:58 | 58.48910 | -29.19829 | 40167 ft | 455 kts | 272° |
| 2026-04-30 18:00 | 58.49634 | -29.68260 | 40157 ft | 456 kts | 271° |
| 2026-04-30 18:01 | 58.49992 | -29.98499 | 40162 ft | 457 kts | 271° |
| 2026-04-30 18:02 | 58.49602 | -30.34916 | 40159 ft | 457 kts | 269° |
| 2026-04-30 18:04 | 58.49054 | -30.71343 | 40154 ft | 457 kts | 269° |
| 2026-04-30 18:06 | 58.48180 | -31.19881 | 40148 ft | 458 kts | 268° |
| 2026-04-30 18:08 | 58.47262 | -31.62436 | 40143 ft | 457 kts | 268° |
| 2026-04-30 18:10 | 58.46043 | -32.10961 | 40163 ft | 457 kts | 268° |
| 2026-04-30 18:11 | 58.44830 | -32.53230 | 40146 ft | 455 kts | 267° |
| 2026-04-30 18:13 | 58.43878 | -32.83422 | 40142 ft | 455 kts | 267° |
| 2026-04-30 18:14 | 58.42860 | -33.13459 | 40133 ft | 454 kts | 267° |
| 2026-04-30 18:15 | 58.41546 | -33.49497 | 40137 ft | 453 kts | 266° |
| 2026-04-30 18:16 | 58.40615 | -33.73452 | 40138 ft | 452 kts | 266° |
| 2026-04-30 18:17 | 58.40133 | -33.85419 | 40135 ft | 452 kts | 266° |
| 2026-04-30 18:18 | 58.39394 | -34.03264 | 40142 ft | 452 kts | 266° |
| 2026-04-30 18:18 | 58.38882 | -34.15288 | 40132 ft | 452 kts | 266° |
| 2026-04-30 18:19 | 58.38365 | -34.27149 | 40131 ft | 452 kts | 266° |
| 2026-04-30 18:19 | 58.37834 | -34.39083 | 40137 ft | 451 kts | 266° |
| 2026-04-30 18:20 | 58.37293 | -34.51004 | 40138 ft | 451 kts | 265° |
| 2026-04-30 18:20 | 58.36741 | -34.62904 | 40143 ft | 451 kts | 265° |
| 2026-04-30 18:21 | 58.36178 | -34.74795 | 40133 ft | 451 kts | 265° |
| 2026-04-30 18:21 | 58.35605 | -34.86669 | 40141 ft | 450 kts | 265° |
| 2026-04-30 18:22 | 58.35025 | -34.98456 | 40122 ft | 450 kts | 265° |
| 2026-04-30 18:22 | 58.34131 | -35.16203 | 40143 ft | 448 kts | 265° |
| 2026-04-30 18:23 | 58.33521 | -35.28036 | 40135 ft | 448 kts | 265° |
| 2026-04-30 18:23 | 58.32902 | -35.39836 | 40138 ft | 448 kts | 265° |
| 2026-04-30 18:24 | 58.31957 | -35.57449 | 40137 ft | 448 kts | 265° |
| 2026-04-30 18:25 | 58.31310 | -35.69252 | 40137 ft | 448 kts | 264° |
| 2026-04-30 18:25 | 58.30322 | -35.86889 | 40135 ft | 447 kts | 264° |
| 2026-04-30 18:26 | 58.29310 | -36.04517 | 40144 ft | 447 kts | 264° |
| 2026-04-30 18:27 | 58.28275 | -36.22127 | 40132 ft | 447 kts | 264° |
| 2026-04-30 18:28 | 58.27215 | -36.39720 | 40128 ft | 446 kts | 264° |
| 2026-04-30 18:28 | 58.26138 | -36.57199 | 40146 ft | 446 kts | 264° |
| 2026-04-30 18:29 | 58.24659 | -36.80566 | 40143 ft | 446 kts | 264° |
| 2026-04-30 18:30 | 58.23138 | -37.03922 | 40146 ft | 446 kts | 263° |
| 2026-04-30 18:31 | 58.21970 | -37.21407 | 40148 ft | 445 kts | 263° |
| 2026-04-30 18:32 | 58.20782 | -37.38823 | 40151 ft | 445 kts | 263° |
| 2026-04-30 18:33 | 58.19566 | -37.56298 | 40151 ft | 445 kts | 263° |
| 2026-04-30 18:33 | 58.18326 | -37.73754 | 40142 ft | 445 kts | 263° |
| 2026-04-30 18:34 | 58.17064 | -37.91172 | 40154 ft | 445 kts | 263° |
| 2026-04-30 18:35 | 58.16209 | -38.02786 | 40153 ft | 445 kts | 262° |
| 2026-04-30 18:35 | 58.15344 | -38.14388 | 40154 ft | 445 kts | 262° |
| 2026-04-30 18:36 | 58.14032 | -38.31708 | 40148 ft | 445 kts | 262° |
| 2026-04-30 18:37 | 58.12691 | -38.49088 | 40145 ft | 445 kts | 262° |
| 2026-04-30 18:37 | 58.11784 | -38.60674 | 40151 ft | 445 kts | 262° |
| 2026-04-30 18:38 | 58.10866 | -38.72244 | 40151 ft | 445 kts | 262° |
| 2026-04-30 18:38 | 58.09939 | -38.83805 | 40151 ft | 445 kts | 262° |
| 2026-04-30 18:39 | 58.09000 | -38.95364 | 40154 ft | 445 kts | 262° |
| 2026-04-30 18:39 | 58.08053 | -39.06905 | 40157 ft | 445 kts | 262° |
| 2026-04-30 18:40 | 58.07099 | -39.18391 | 40150 ft | 445 kts | 261° |
| 2026-04-30 18:40 | 58.06129 | -39.29933 | 40157 ft | 445 kts | 261° |
| 2026-04-30 18:41 | 58.05308 | -39.39608 | 40154 ft | 445 kts | 261° |
| 2026-04-30 18:41 | 58.04318 | -39.51149 | 40154 ft | 445 kts | 261° |
| 2026-04-30 18:42 | 58.03323 | -39.62615 | 40161 ft | 445 kts | 261° |
| 2026-04-30 18:42 | 58.01803 | -39.79914 | 40158 ft | 446 kts | 261° |
| 2026-04-30 18:45 | 57.97383 | -40.43633 | 40151 ft | 446 kts | 263° |
| 2026-04-30 18:46 | 57.96659 | -40.55247 | 40155 ft | 446 kts | 263° |
| 2026-04-30 18:46 | 57.95925 | -40.66776 | 40154 ft | 446 kts | 263° |
| 2026-04-30 18:47 | 57.95176 | -40.78381 | 40151 ft | 446 kts | 263° |
| 2026-04-30 18:47 | 57.94419 | -40.89979 | 40151 ft | 446 kts | 263° |
| 2026-04-30 18:48 | 57.93651 | -41.01586 | 40153 ft | 446 kts | 263° |
| 2026-04-30 18:48 | 57.92874 | -41.13159 | 40144 ft | 446 kts | 263° |
| 2026-04-30 18:49 | 57.92086 | -41.24743 | 40146 ft | 446 kts | 263° |
| 2026-04-30 18:49 | 57.91292 | -41.36248 | 40151 ft | 446 kts | 262° |
| 2026-04-30 18:50 | 57.90482 | -41.47828 | 40151 ft | 447 kts | 262° |
| 2026-04-30 18:50 | 57.89660 | -41.59424 | 40160 ft | 448 kts | 262° |
| 2026-04-30 18:51 | 57.88825 | -41.71038 | 40160 ft | 448 kts | 262° |
| 2026-04-30 18:51 | 57.87981 | -41.82643 | 40159 ft | 448 kts | 262° |
| 2026-04-30 18:52 | 57.87125 | -41.94245 | 40162 ft | 448 kts | 262° |
| 2026-04-30 18:52 | 57.86259 | -42.05847 | 40156 ft | 448 kts | 262° |
| 2026-04-30 18:53 | 57.85382 | -42.17451 | 40159 ft | 448 kts | 262° |
| 2026-04-30 18:53 | 57.84500 | -42.28967 | 40159 ft | 448 kts | 262° |
| 2026-04-30 18:54 | 57.83602 | -42.40554 | 40170 ft | 448 kts | 262° |
| 2026-04-30 18:54 | 57.82693 | -42.52130 | 40159 ft | 448 kts | 262° |
| 2026-04-30 18:55 | 57.81775 | -42.63687 | 40163 ft | 448 kts | 261° |
| 2026-04-30 18:55 | 57.80377 | -42.81034 | 40165 ft | 449 kts | 261° |
| 2026-04-30 18:56 | 57.78951 | -42.98415 | 40162 ft | 449 kts | 261° |
| 2026-04-30 18:57 | 57.77507 | -43.15715 | 40180 ft | 450 kts | 261° |
| 2026-04-30 18:57 | 57.76531 | -43.27248 | 40170 ft | 448 kts | 261° |
| 2026-04-30 18:58 | 57.75050 | -43.44503 | 40161 ft | 447 kts | 261° |
| 2026-04-30 18:59 | 57.73545 | -43.61744 | 40168 ft | 447 kts | 260° |
| 2026-04-30 19:00 | 57.71509 | -43.84637 | 40167 ft | 447 kts | 260° |
| 2026-04-30 19:01 | 57.69424 | -44.07581 | 40168 ft | 447 kts | 260° |
| 2026-04-30 19:02 | 57.67832 | -44.24783 | 40183 ft | 448 kts | 259° |
| 2026-04-30 19:03 | 57.65676 | -44.47678 | 40171 ft | 446 kts | 259° |
| 2026-04-30 19:04 | 57.63486 | -44.70458 | 40172 ft | 445 kts | 259° |
| 2026-04-30 19:05 | 57.61264 | -44.93121 | 40171 ft | 446 kts | 259° |
| 2026-04-30 19:06 | 57.58990 | -45.15870 | 40169 ft | 446 kts | 259° |
| 2026-04-30 19:06 | 57.57256 | -45.32932 | 40196 ft | 447 kts | 258° |
| 2026-04-30 19:07 | 57.55499 | -45.49978 | 40167 ft | 446 kts | 258° |
| 2026-04-30 19:08 | 57.53134 | -45.72555 | 40167 ft | 446 kts | 258° |
| 2026-04-30 19:09 | 57.51327 | -45.89525 | 40173 ft | 446 kts | 258° |
| 2026-04-30 19:09 | 57.50110 | -46.00833 | 40168 ft | 446 kts | 258° |
| 2026-04-30 19:10 | 57.47646 | -46.23418 | 40168 ft | 446 kts | 257° |
| 2026-04-30 19:11 | 57.45777 | -46.40284 | 40173 ft | 446 kts | 257° |
| 2026-04-30 19:12 | 57.44513 | -46.51575 | 40167 ft | 446 kts | 257° |
| 2026-04-30 19:12 | 57.43240 | -46.62845 | 40170 ft | 446 kts | 257° |
| 2026-04-30 19:13 | 57.40672 | -46.85286 | 40162 ft | 445 kts | 257° |
| 2026-04-30 19:14 | 57.39370 | -46.96518 | 40168 ft | 445 kts | 257° |
| 2026-04-30 19:14 | 57.38058 | -47.07744 | 40169 ft | 445 kts | 257° |
| 2026-04-30 19:15 | 57.36737 | -47.18959 | 40167 ft | 446 kts | 257° |
| 2026-04-30 19:15 | 57.34734 | -47.35779 | 40159 ft | 446 kts | 256° |
| 2026-04-30 19:16 | 57.33387 | -47.46981 | 40164 ft | 446 kts | 256° |
| 2026-04-30 19:17 | 57.31344 | -47.63801 | 40168 ft | 446 kts | 256° |
| 2026-04-30 19:17 | 57.29278 | -47.80599 | 40165 ft | 446 kts | 256° |
| 2026-04-30 19:18 | 57.27200 | -47.97302 | 40165 ft | 446 kts | 256° |
| 2026-04-30 19:19 | 57.25796 | -48.08477 | 40162 ft | 446 kts | 256° |
| 2026-04-30 19:19 | 57.23669 | -48.25237 | 40157 ft | 446 kts | 256° |
| 2026-04-30 19:20 | 57.22240 | -48.36392 | 40162 ft | 447 kts | 256° |
| 2026-04-30 19:21 | 57.20078 | -48.53113 | 40166 ft | 447 kts | 255° |
| 2026-04-30 19:22 | 57.17150 | -48.75449 | 40158 ft | 449 kts | 255° |
| 2026-04-30 19:23 | 57.12682 | -49.08899 | 40158 ft | 449 kts | 255° |
| 2026-04-30 19:24 | 57.10409 | -49.25639 | 40158 ft | 449 kts | 255° |
| 2026-04-30 19:25 | 57.06578 | -49.53439 | 40159 ft | 449 kts | 255° |
| 2026-04-30 19:26 | 57.03456 | -49.75732 | 40161 ft | 451 kts | 254° |
| 2026-04-30 19:27 | 57.01094 | -49.92390 | 40155 ft | 451 kts | 254° |
| 2026-04-30 19:28 | 56.97949 | -50.08627 | 40162 ft | 451 kts | 246° |
| 2026-04-30 19:29 | 56.93283 | -50.27934 | 40167 ft | 451 kts | 245° |
| 2026-04-30 19:30 | 56.88149 | -50.48901 | 40162 ft | 452 kts | 245° |
| 2026-04-30 19:31 | 56.83013 | -50.69760 | 40167 ft | 452 kts | 245° |
| 2026-04-30 19:31 | 56.79121 | -50.85432 | 40175 ft | 452 kts | 245° |
| 2026-04-30 19:32 | 56.76508 | -50.95892 | 40158 ft | 453 kts | 245° |
| 2026-04-30 19:32 | 56.73884 | -51.06348 | 40163 ft | 454 kts | 245° |
| 2026-04-30 19:33 | 56.71248 | -51.16797 | 40164 ft | 454 kts | 245° |
| 2026-04-30 19:33 | 56.68602 | -51.27242 | 40167 ft | 454 kts | 245° |
| 2026-04-30 19:34 | 56.65949 | -51.37661 | 40158 ft | 454 kts | 245° |
| 2026-04-30 19:35 | 56.61952 | -51.53272 | 40168 ft | 455 kts | 245° |
| 2026-04-30 19:35 | 56.59289 | -51.63608 | 40166 ft | 455 kts | 245° |
| 2026-04-30 19:36 | 56.56601 | -51.73998 | 40167 ft | 455 kts | 244° |
| 2026-04-30 19:36 | 56.52553 | -51.89550 | 40168 ft | 455 kts | 244° |
| 2026-04-30 19:37 | 56.49842 | -51.99907 | 40168 ft | 455 kts | 244° |
| 2026-04-30 19:37 | 56.47121 | -52.10254 | 40165 ft | 455 kts | 244° |
| 2026-04-30 19:38 | 56.44391 | -52.20585 | 40168 ft | 455 kts | 244° |
| 2026-04-30 19:38 | 56.41652 | -52.30906 | 40169 ft | 456 kts | 244° |
| 2026-04-30 19:39 | 56.38900 | -52.41229 | 40159 ft | 456 kts | 244° |
| 2026-04-30 19:39 | 56.36159 | -52.51463 | 40165 ft | 456 kts | 244° |
| 2026-04-30 19:40 | 56.33389 | -52.61759 | 40169 ft | 456 kts | 244° |
| 2026-04-30 19:40 | 56.30610 | -52.72038 | 40167 ft | 456 kts | 244° |
| 2026-04-30 19:41 | 56.27820 | -52.82318 | 40173 ft | 456 kts | 244° |
| 2026-04-30 19:41 | 56.25023 | -52.92571 | 40173 ft | 456 kts | 243° |
| 2026-04-30 19:42 | 56.22217 | -53.02815 | 40173 ft | 457 kts | 243° |
| 2026-04-30 19:42 | 56.19403 | -53.13044 | 40173 ft | 457 kts | 243° |
| 2026-04-30 19:43 | 56.16577 | -53.23266 | 40173 ft | 457 kts | 243° |
| 2026-04-30 19:44 | 56.12323 | -53.38571 | 40177 ft | 457 kts | 243° |
| 2026-04-30 19:44 | 56.09474 | -53.48766 | 40174 ft | 458 kts | 243° |
| 2026-04-30 19:45 | 56.06630 | -53.58896 | 40171 ft | 458 kts | 243° |
| 2026-04-30 19:45 | 56.03757 | -53.69088 | 40171 ft | 458 kts | 243° |
| 2026-04-30 19:46 | 56.00877 | -53.79256 | 40171 ft | 458 kts | 243° |
| 2026-04-30 19:46 | 55.97988 | -53.89412 | 40173 ft | 458 kts | 243° |
| 2026-04-30 19:47 | 55.95091 | -53.99554 | 40161 ft | 459 kts | 243° |
| 2026-04-30 19:47 | 55.92185 | -54.09680 | 40170 ft | 459 kts | 243° |
| 2026-04-30 19:48 | 55.89268 | -54.19802 | 40172 ft | 459 kts | 242° |
| 2026-04-30 19:48 | 55.86341 | -54.29914 | 40170 ft | 459 kts | 242° |
| 2026-04-30 19:49 | 55.83405 | -54.40012 | 40169 ft | 459 kts | 242° |
| 2026-04-30 19:49 | 55.78985 | -54.55135 | 40166 ft | 459 kts | 242° |
| 2026-04-30 19:50 | 55.76029 | -54.65194 | 40167 ft | 460 kts | 242° |
| 2026-04-30 19:50 | 55.73078 | -54.75193 | 40186 ft | 460 kts | 242° |
| 2026-04-30 19:51 | 55.70094 | -54.85264 | 40169 ft | 461 kts | 242° |
| 2026-04-30 19:51 | 55.67100 | -54.95320 | 40167 ft | 461 kts | 242° |
| 2026-04-30 19:52 | 55.64094 | -55.05378 | 40160 ft | 462 kts | 242° |
| 2026-04-30 19:52 | 55.61078 | -55.15422 | 40169 ft | 462 kts | 242° |
| 2026-04-30 19:53 | 55.58054 | -55.25452 | 40165 ft | 462 kts | 242° |
| 2026-04-30 19:53 | 55.55022 | -55.35467 | 40167 ft | 462 kts | 241° |
| 2026-04-30 19:54 | 55.52002 | -55.45400 | 40163 ft | 462 kts | 241° |
| 2026-04-30 19:54 | 55.48948 | -55.55401 | 40156 ft | 462 kts | 241° |
| 2026-04-30 19:55 | 55.45891 | -55.65372 | 40157 ft | 462 kts | 241° |
| 2026-04-30 19:55 | 55.42824 | -55.75332 | 40156 ft | 462 kts | 241° |
| 2026-04-30 19:56 | 55.39747 | -55.85284 | 40157 ft | 463 kts | 241° |
| 2026-04-30 19:56 | 55.36665 | -55.95212 | 40157 ft | 463 kts | 241° |
| 2026-04-30 19:57 | 55.33569 | -56.05141 | 40150 ft | 464 kts | 241° |
| 2026-04-30 19:57 | 55.30480 | -56.15008 | 40150 ft | 464 kts | 240° |
| 2026-04-30 19:58 | 55.27359 | -56.24933 | 40148 ft | 464 kts | 240° |
| 2026-04-30 19:58 | 55.24228 | -56.34853 | 40148 ft | 464 kts | 240° |
| 2026-04-30 19:59 | 55.21089 | -56.44753 | 40142 ft | 465 kts | 240° |
| 2026-04-30 20:00 | 55.16366 | -56.59576 | 40140 ft | 465 kts | 240° |
| 2026-04-30 20:00 | 55.13210 | -56.69428 | 40139 ft | 465 kts | 240° |
| 2026-04-30 20:01 | 55.08455 | -56.84202 | 40135 ft | 465 kts | 240° |
| 2026-04-30 20:01 | 55.05292 | -56.93976 | 40128 ft | 465 kts | 240° |
| 2026-04-30 20:02 | 55.01539 | -57.09559 | 40127 ft | 467 kts | 250° |
| 2026-04-30 20:03 | 54.98532 | -57.25725 | 40127 ft | 468 kts | 251° |
| 2026-04-30 20:03 | 54.96535 | -57.36513 | 40127 ft | 468 kts | 251° |
| 2026-04-30 20:04 | 54.94527 | -57.47211 | 40123 ft | 468 kts | 250° |
| 2026-04-30 20:05 | 54.91465 | -57.63335 | 40119 ft | 468 kts | 250° |
| 2026-04-30 20:05 | 54.88379 | -57.79452 | 40116 ft | 469 kts | 250° |
| 2026-04-30 20:06 | 54.86304 | -57.90209 | 40114 ft | 469 kts | 250° |
| 2026-04-30 20:06 | 54.84225 | -58.00936 | 40113 ft | 469 kts | 250° |
| 2026-04-30 20:07 | 54.82129 | -58.11685 | 40106 ft | 470 kts | 250° |
| 2026-04-30 20:08 | 54.78985 | -58.27701 | 40101 ft | 470 kts | 250° |
| 2026-04-30 20:08 | 54.76861 | -58.38445 | 40101 ft | 471 kts | 250° |
| 2026-04-30 20:09 | 54.74728 | -58.49172 | 40100 ft | 471 kts | 250° |
| 2026-04-30 20:09 | 54.71510 | -58.65253 | 40097 ft | 471 kts | 249° |
| 2026-04-30 20:10 | 54.68271 | -58.81307 | 40095 ft | 471 kts | 249° |
| 2026-04-30 20:11 | 54.65010 | -58.97337 | 40095 ft | 471 kts | 249° |
| 2026-04-30 20:11 | 54.62822 | -59.08020 | 40090 ft | 471 kts | 249° |
| 2026-04-30 20:12 | 54.59541 | -59.23935 | 40092 ft | 471 kts | 249° |
| 2026-04-30 20:13 | 54.57333 | -59.34575 | 40093 ft | 471 kts | 249° |
| 2026-04-30 20:13 | 54.55114 | -59.45209 | 40083 ft | 471 kts | 249° |
| 2026-04-30 20:14 | 54.52886 | -59.55830 | 40087 ft | 472 kts | 249° |
| 2026-04-30 20:14 | 54.50646 | -59.66455 | 40086 ft | 472 kts | 249° |
| 2026-04-30 20:15 | 54.48408 | -59.77011 | 40077 ft | 472 kts | 249° |
| 2026-04-30 20:15 | 54.46147 | -59.87624 | 40064 ft | 472 kts | 249° |
| 2026-04-30 20:16 | 54.43879 | -59.98211 | 40064 ft | 472 kts | 248° |
| 2026-04-30 20:16 | 54.41600 | -60.08797 | 40057 ft | 472 kts | 248° |
| 2026-04-30 20:17 | 54.39306 | -60.19396 | 40050 ft | 473 kts | 248° |
| 2026-04-30 20:17 | 54.37016 | -60.29922 | 40050 ft | 474 kts | 248° |
| 2026-04-30 20:18 | 54.34702 | -60.40507 | 40060 ft | 474 kts | 248° |
| 2026-04-30 20:18 | 54.32754 | -60.49374 | 40056 ft | 474 kts | 248° |
| 2026-04-30 20:19 | 54.30439 | -60.59865 | 40059 ft | 474 kts | 248° |
| 2026-04-30 20:19 | 54.28093 | -60.70438 | 40046 ft | 474 kts | 248° |
| 2026-04-30 20:20 | 54.25741 | -60.80989 | 40049 ft | 475 kts | 248° |
| 2026-04-30 20:20 | 54.23379 | -60.91527 | 40048 ft | 475 kts | 248° |
| 2026-04-30 20:21 | 54.21006 | -61.02069 | 40045 ft | 475 kts | 248° |
| 2026-04-30 20:21 | 54.18624 | -61.12593 | 40045 ft | 475 kts | 248° |
| 2026-04-30 20:22 | 54.16233 | -61.23102 | 40044 ft | 475 kts | 247° |
| 2026-04-30 20:22 | 54.13832 | -61.33605 | 40042 ft | 475 kts | 247° |
| 2026-04-30 20:23 | 54.11433 | -61.44045 | 40047 ft | 475 kts | 247° |
| 2026-04-30 20:23 | 54.09011 | -61.54538 | 40041 ft | 475 kts | 247° |
| 2026-04-30 20:24 | 54.06586 | -61.64990 | 40048 ft | 475 kts | 247° |
| 2026-04-30 20:24 | 54.04147 | -61.75449 | 40041 ft | 475 kts | 247° |
| 2026-04-30 20:25 | 54.00475 | -61.91100 | 40044 ft | 475 kts | 247° |
| 2026-04-30 20:26 | 53.96778 | -62.06747 | 40035 ft | 475 kts | 246° |
| 2026-04-30 20:26 | 53.93060 | -62.22369 | 40038 ft | 475 kts | 246° |
| 2026-04-30 20:27 | 53.88075 | -62.43135 | 40028 ft | 476 kts | 246° |
| 2026-04-30 20:28 | 53.83065 | -62.63807 | 40036 ft | 476 kts | 246° |
| 2026-04-30 20:30 | 53.76723 | -62.89704 | 40043 ft | 476 kts | 246° |
| 2026-04-30 20:31 | 53.69053 | -63.20617 | 40042 ft | 476 kts | 245° |
| 2026-04-30 20:32 | 53.62590 | -63.46334 | 40054 ft | 476 kts | 245° |
| 2026-04-30 20:33 | 53.58688 | -63.61720 | 40048 ft | 476 kts | 245° |
| 2026-04-30 20:34 | 53.54758 | -63.77108 | 40064 ft | 477 kts | 245° |
| 2026-04-30 20:35 | 53.50802 | -63.92493 | 40055 ft | 478 kts | 244° |
| 2026-04-30 20:35 | 53.46846 | -64.07771 | 40055 ft | 478 kts | 244° |
| 2026-04-30 20:36 | 53.44183 | -64.17998 | 40055 ft | 478 kts | 244° |
| 2026-04-30 20:37 | 53.40169 | -64.33326 | 40052 ft | 478 kts | 244° |
| 2026-04-30 20:37 | 53.37483 | -64.43525 | 40054 ft | 478 kts | 244° |
| 2026-04-30 20:38 | 53.34786 | -64.53719 | 40058 ft | 479 kts | 244° |
| 2026-04-30 20:38 | 53.32076 | -64.63919 | 40048 ft | 480 kts | 244° |
| 2026-04-30 20:39 | 53.27983 | -64.79236 | 40052 ft | 481 kts | 244° |
| 2026-04-30 20:40 | 53.23885 | -64.94469 | 40048 ft | 481 kts | 244° |
| 2026-04-30 20:40 | 53.21130 | -65.04655 | 40042 ft | 481 kts | 244° |
| 2026-04-30 20:41 | 53.16978 | -65.19921 | 40040 ft | 481 kts | 243° |
| 2026-04-30 20:41 | 53.14197 | -65.30086 | 40056 ft | 482 kts | 244° |
| 2026-04-30 20:42 | 53.11402 | -65.40260 | 40030 ft | 484 kts | 244° |
| 2026-04-30 20:43 | 53.07201 | -65.55467 | 40028 ft | 484 kts | 243° |
| 2026-04-30 20:43 | 53.04375 | -65.65644 | 40042 ft | 484 kts | 243° |
| 2026-04-30 20:44 | 53.00120 | -65.80883 | 40023 ft | 485 kts | 243° |
| 2026-04-30 20:45 | 52.94415 | -66.01156 | 40026 ft | 485 kts | 243° |
| 2026-04-30 20:45 | 52.91552 | -66.11264 | 40028 ft | 484 kts | 243° |
| 2026-04-30 20:46 | 52.85803 | -66.31430 | 40029 ft | 484 kts | 243° |
| 2026-04-30 20:47 | 52.81487 | -66.46457 | 40020 ft | 484 kts | 243° |
| 2026-04-30 20:48 | 52.77130 | -66.61533 | 39977 ft | 485 kts | 243° |
| 2026-04-30 20:48 | 52.74208 | -66.71586 | 39970 ft | 485 kts | 243° |
| 2026-04-30 20:49 | 52.71283 | -66.81610 | 40021 ft | 485 kts | 243° |
| 2026-04-30 20:50 | 52.66865 | -66.96668 | 39998 ft | 487 kts | 242° |
| 2026-04-30 20:50 | 52.63926 | -67.06634 | 40001 ft | 487 kts | 242° |
| 2026-04-30 20:51 | 52.60957 | -67.16658 | 39999 ft | 487 kts | 242° |
| 2026-04-30 20:51 | 52.56483 | -67.31688 | 39992 ft | 487 kts | 242° |
| 2026-04-30 20:52 | 52.53493 | -67.41678 | 39983 ft | 488 kts | 242° |
| 2026-04-30 20:53 | 52.48985 | -67.56660 | 39980 ft | 487 kts | 242° |
| 2026-04-30 20:53 | 52.45975 | -67.66616 | 39976 ft | 486 kts | 242° |
| 2026-04-30 20:54 | 52.41474 | -67.81422 | 39966 ft | 486 kts | 242° |
| 2026-04-30 20:55 | 52.36938 | -67.96252 | 39968 ft | 485 kts | 242° |
| 2026-04-30 20:55 | 52.33905 | -68.06118 | 39966 ft | 485 kts | 242° |
| 2026-04-30 20:56 | 52.29345 | -68.20878 | 39949 ft | 485 kts | 241° |
| 2026-04-30 20:57 | 52.24764 | -68.35615 | 39949 ft | 484 kts | 241° |
| 2026-04-30 20:57 | 52.21706 | -68.45400 | 39938 ft | 484 kts | 241° |
| 2026-04-30 20:58 | 52.17101 | -68.60063 | 39936 ft | 484 kts | 241° |
| 2026-04-30 20:58 | 52.14038 | -68.69768 | 39927 ft | 485 kts | 241° |
| 2026-04-30 20:59 | 52.09404 | -68.84380 | 39925 ft | 484 kts | 240° |
| 2026-04-30 21:00 | 52.03186 | -69.03848 | 39921 ft | 486 kts | 240° |
| 2026-04-30 21:01 | 51.98486 | -69.18462 | 39914 ft | 487 kts | 240° |
| 2026-04-30 21:02 | 51.93768 | -69.33047 | 39908 ft | 487 kts | 240° |
| 2026-04-30 21:02 | 51.90610 | -69.42761 | 39904 ft | 487 kts | 240° |
| 2026-04-30 21:03 | 51.87442 | -69.52467 | 39898 ft | 487 kts | 240° |
| 2026-04-30 21:03 | 51.84270 | -69.62146 | 39897 ft | 487 kts | 240° |
| 2026-04-30 21:04 | 51.81089 | -69.71816 | 39897 ft | 487 kts | 240° |
| 2026-04-30 21:04 | 51.76318 | -69.86246 | 39887 ft | 487 kts | 239° |
| 2026-04-30 21:05 | 51.73638 | -69.94317 | 39886 ft | 487 kts | 239° |
| 2026-04-30 21:05 | 51.70449 | -70.03887 | 39882 ft | 487 kts | 239° |
| 2026-04-30 21:06 | 51.67233 | -70.13501 | 39880 ft | 487 kts | 239° |
| 2026-04-30 21:06 | 51.64007 | -70.23106 | 39874 ft | 487 kts | 239° |
| 2026-04-30 21:07 | 51.60777 | -70.32688 | 39884 ft | 487 kts | 239° |
| 2026-04-30 21:07 | 51.57534 | -70.42270 | 39859 ft | 487 kts | 239° |
| 2026-04-30 21:08 | 51.54287 | -70.51829 | 39858 ft | 487 kts | 239° |
| 2026-04-30 21:08 | 51.51032 | -70.61373 | 39852 ft | 487 kts | 239° |
| 2026-04-30 21:09 | 51.47766 | -70.70915 | 39853 ft | 487 kts | 239° |
| 2026-04-30 21:09 | 51.44495 | -70.80432 | 39848 ft | 487 kts | 239° |
| 2026-04-30 21:10 | 51.41217 | -70.89937 | 39843 ft | 487 kts | 239° |
| 2026-04-30 21:10 | 51.37930 | -70.99432 | 39837 ft | 488 kts | 239° |
| 2026-04-30 21:11 | 51.34634 | -71.08916 | 39845 ft | 488 kts | 238° |
| 2026-04-30 21:11 | 51.31326 | -71.18399 | 39820 ft | 488 kts | 238° |
| 2026-04-30 21:12 | 51.28031 | -71.27811 | 39824 ft | 488 kts | 238° |
| 2026-04-30 21:12 | 51.24709 | -71.37260 | 39827 ft | 488 kts | 238° |
| 2026-04-30 21:13 | 51.21381 | -71.46697 | 39813 ft | 488 kts | 238° |
| 2026-04-30 21:13 | 51.18046 | -71.56115 | 39811 ft | 488 kts | 238° |
| 2026-04-30 21:14 | 51.14700 | -71.65529 | 39809 ft | 488 kts | 238° |
| 2026-04-30 21:14 | 51.11350 | -71.74922 | 39803 ft | 488 kts | 238° |
| 2026-04-30 21:15 | 51.07871 | -71.84179 | 39806 ft | 486 kts | 233° |
| 2026-04-30 21:15 | 51.03954 | -71.92949 | 39800 ft | 486 kts | 232° |
| 2026-04-30 21:16 | 50.99990 | -72.01545 | 39808 ft | 486 kts | 231° |
| 2026-04-30 21:16 | 50.95952 | -72.10243 | 39807 ft | 486 kts | 231° |
| 2026-04-30 21:17 | 50.91967 | -72.18821 | 39802 ft | 486 kts | 231° |
| 2026-04-30 21:17 | 50.87954 | -72.27445 | 39818 ft | 486 kts | 231° |
| 2026-04-30 21:18 | 50.83937 | -72.36051 | 39812 ft | 486 kts | 231° |
| 2026-04-30 21:18 | 50.79915 | -72.44641 | 39813 ft | 486 kts | 231° |
| 2026-04-30 21:19 | 50.75885 | -72.53218 | 39826 ft | 486 kts | 231° |
| 2026-04-30 21:19 | 50.71847 | -72.61784 | 39827 ft | 486 kts | 231° |
| 2026-04-30 21:20 | 50.67798 | -72.70346 | 39823 ft | 486 kts | 231° |
| 2026-04-30 21:20 | 50.63749 | -72.78880 | 39823 ft | 486 kts | 231° |
| 2026-04-30 21:21 | 50.59694 | -72.87398 | 39834 ft | 486 kts | 231° |
| 2026-04-30 21:22 | 50.53602 | -73.00145 | 39837 ft | 486 kts | 231° |
| 2026-04-30 21:23 | 50.45479 | -73.17043 | 39849 ft | 487 kts | 230° |
| 2026-04-30 21:23 | 50.39341 | -73.29740 | 39848 ft | 487 kts | 230° |
| 2026-04-30 21:24 | 50.35242 | -73.38186 | 39865 ft | 487 kts | 230° |
| 2026-04-30 21:24 | 50.31126 | -73.46639 | 39848 ft | 488 kts | 230° |
| 2026-04-30 21:25 | 50.24944 | -73.59284 | 39863 ft | 488 kts | 230° |
| 2026-04-30 21:26 | 50.18748 | -73.71897 | 39874 ft | 488 kts | 230° |
| 2026-04-30 21:27 | 50.12521 | -73.84510 | 39860 ft | 490 kts | 230° |
| 2026-04-30 21:27 | 50.08384 | -73.92861 | 39865 ft | 490 kts | 230° |
| 2026-04-30 21:28 | 50.02118 | -74.05454 | 39865 ft | 490 kts | 230° |
| 2026-04-30 21:29 | 49.95840 | -74.18012 | 39879 ft | 490 kts | 230° |
| 2026-04-30 21:30 | 49.85348 | -74.38867 | 39836 ft | 490 kts | 230° |
| 2026-04-30 21:31 | 49.75718 | -74.60657 | 39830 ft | 495 kts | 237° |
| 2026-04-30 21:32 | 49.70525 | -74.74457 | 39857 ft | 495 kts | 237° |
| 2026-04-30 21:32 | 49.67053 | -74.83636 | 39869 ft | 495 kts | 237° |
| 2026-04-30 21:33 | 49.61811 | -74.97385 | 39902 ft | 495 kts | 237° |
| 2026-04-30 21:34 | 49.58306 | -75.06525 | 39912 ft | 496 kts | 237° |
| 2026-04-30 21:34 | 49.53024 | -75.20244 | 39919 ft | 497 kts | 237° |
| 2026-04-30 21:35 | 49.49488 | -75.29391 | 39922 ft | 497 kts | 237° |
| 2026-04-30 21:35 | 49.45972 | -75.38453 | 39930 ft | 497 kts | 237° |
| 2026-04-30 21:36 | 49.42425 | -75.47564 | 39932 ft | 497 kts | 237° |
| 2026-04-30 21:37 | 49.35306 | -75.65756 | 39941 ft | 498 kts | 237° |
| 2026-04-30 21:37 | 49.31726 | -75.74856 | 39941 ft | 498 kts | 237° |
| 2026-04-30 21:38 | 49.28140 | -75.83943 | 39952 ft | 498 kts | 237° |
| 2026-04-30 21:38 | 49.24550 | -75.93006 | 39952 ft | 498 kts | 237° |
| 2026-04-30 21:39 | 49.20947 | -76.02071 | 39952 ft | 498 kts | 237° |
| 2026-04-30 21:39 | 49.17340 | -76.11117 | 39955 ft | 498 kts | 236° |
| 2026-04-30 21:40 | 49.13729 | -76.20139 | 39957 ft | 498 kts | 236° |
| 2026-04-30 21:40 | 49.10113 | -76.29145 | 39955 ft | 497 kts | 236° |
| 2026-04-30 21:41 | 49.06490 | -76.38140 | 39956 ft | 497 kts | 236° |
| 2026-04-30 21:41 | 49.02861 | -76.47115 | 39954 ft | 497 kts | 236° |
| 2026-04-30 21:42 | 48.99252 | -76.56013 | 39957 ft | 497 kts | 236° |
| 2026-04-30 21:42 | 48.95613 | -76.64953 | 39959 ft | 497 kts | 236° |
| 2026-04-30 21:43 | 48.92553 | -76.72448 | 39965 ft | 497 kts | 236° |
| 2026-04-30 21:43 | 48.88295 | -76.82843 | 39965 ft | 499 kts | 236° |
| 2026-04-30 21:44 | 48.84620 | -76.91783 | 39965 ft | 499 kts | 236° |
| 2026-04-30 21:44 | 48.80938 | -77.00710 | 39965 ft | 499 kts | 236° |
| 2026-04-30 21:45 | 48.77246 | -77.09630 | 39968 ft | 499 kts | 236° |
| 2026-04-30 21:45 | 48.73542 | -77.18552 | 39968 ft | 499 kts | 236° |
| 2026-04-30 21:46 | 48.69861 | -77.27388 | 39966 ft | 499 kts | 236° |
| 2026-04-30 21:46 | 48.66146 | -77.36273 | 39969 ft | 500 kts | 236° |
| 2026-04-30 21:47 | 48.62425 | -77.45146 | 39975 ft | 500 kts | 236° |
| 2026-04-30 21:47 | 48.58693 | -77.54017 | 39980 ft | 499 kts | 236° |
| 2026-04-30 21:48 | 48.54963 | -77.62850 | 39989 ft | 499 kts | 236° |
| 2026-04-30 21:48 | 48.51223 | -77.71682 | 39997 ft | 499 kts | 236° |
| 2026-04-30 21:49 | 48.47479 | -77.80493 | 39996 ft | 499 kts | 236° |
| 2026-04-30 21:49 | 48.43725 | -77.89298 | 39997 ft | 499 kts | 236° |
| 2026-04-30 21:50 | 48.39987 | -77.98036 | 39998 ft | 499 kts | 236° |
| 2026-04-30 21:50 | 48.36217 | -78.06823 | 40001 ft | 499 kts | 236° |
| 2026-04-30 21:51 | 48.32446 | -78.15581 | 39999 ft | 499 kts | 236° |
| 2026-04-30 21:51 | 48.28669 | -78.24327 | 39999 ft | 499 kts | 236° |
| 2026-04-30 21:52 | 48.25521 | -78.31593 | 40001 ft | 499 kts | 236° |
| 2026-04-30 21:52 | 48.21731 | -78.40317 | 40007 ft | 499 kts | 235° |
| 2026-04-30 21:53 | 48.17924 | -78.49051 | 40009 ft | 500 kts | 235° |
| 2026-04-30 21:53 | 48.14113 | -78.57765 | 40009 ft | 500 kts | 235° |
| 2026-04-30 21:54 | 48.10292 | -78.66476 | 40010 ft | 500 kts | 235° |
| 2026-04-30 21:54 | 48.06467 | -78.75168 | 39971 ft | 500 kts | 235° |
| 2026-04-30 21:55 | 48.02634 | -78.83848 | 39977 ft | 500 kts | 235° |
| 2026-04-30 21:55 | 47.98796 | -78.92515 | 39990 ft | 500 kts | 235° |
| 2026-04-30 21:56 | 47.94948 | -79.01175 | 39994 ft | 501 kts | 235° |
| 2026-04-30 21:56 | 47.91119 | -79.09764 | 40006 ft | 501 kts | 235° |
| 2026-04-30 21:57 | 47.87252 | -79.18413 | 40009 ft | 500 kts | 235° |
| 2026-04-30 21:57 | 47.83386 | -79.27032 | 40010 ft | 500 kts | 235° |
| 2026-04-30 21:58 | 47.79512 | -79.35642 | 40010 ft | 500 kts | 235° |
| 2026-04-30 21:58 | 47.75632 | -79.44236 | 40017 ft | 501 kts | 235° |
| 2026-04-30 21:59 | 47.71764 | -79.52778 | 40008 ft | 500 kts | 235° |
| 2026-04-30 22:00 | 47.65915 | -79.65644 | 40008 ft | 500 kts | 235° |
| 2026-04-30 22:00 | 47.60082 | -79.78415 | 39984 ft | 500 kts | 235° |
| 2026-04-30 22:01 | 47.56172 | -79.86943 | 39987 ft | 500 kts | 235° |
| 2026-04-30 22:01 | 47.52256 | -79.95455 | 39996 ft | 500 kts | 235° |
| 2026-04-30 22:02 | 47.48338 | -80.03948 | 39996 ft | 500 kts | 234° |
| 2026-04-30 22:02 | 47.44411 | -80.12432 | 40002 ft | 500 kts | 234° |
| 2026-04-30 22:03 | 47.40480 | -80.20902 | 39998 ft | 500 kts | 234° |
| 2026-04-30 22:03 | 47.36538 | -80.29366 | 39998 ft | 500 kts | 234° |
| 2026-04-30 22:04 | 47.32595 | -80.37809 | 39994 ft | 500 kts | 234° |
| 2026-04-30 22:05 | 47.26669 | -80.50447 | 39993 ft | 500 kts | 234° |
| 2026-04-30 22:05 | 47.22708 | -80.58862 | 39990 ft | 500 kts | 234° |
| 2026-04-30 22:06 | 47.18768 | -80.67208 | 39992 ft | 500 kts | 234° |
| 2026-04-30 22:06 | 47.12808 | -80.79785 | 39996 ft | 500 kts | 234° |
| 2026-04-30 22:07 | 47.08822 | -80.88164 | 39996 ft | 500 kts | 234° |
| 2026-04-30 22:07 | 47.04835 | -80.96520 | 39999 ft | 500 kts | 234° |
| 2026-04-30 22:08 | 47.00841 | -81.04866 | 39995 ft | 500 kts | 234° |
| 2026-04-30 22:08 | 46.96866 | -81.13148 | 39996 ft | 500 kts | 234° |
| 2026-04-30 22:09 | 46.92859 | -81.21470 | 39996 ft | 500 kts | 234° |
| 2026-04-30 22:09 | 46.88844 | -81.29785 | 39993 ft | 500 kts | 234° |
| 2026-04-30 22:10 | 46.84820 | -81.38093 | 39996 ft | 500 kts | 234° |
| 2026-04-30 22:10 | 46.80802 | -81.46364 | 39996 ft | 499 kts | 234° |
| 2026-04-30 22:11 | 46.74771 | -81.58731 | 39999 ft | 498 kts | 234° |
| 2026-04-30 22:12 | 46.70745 | -81.66959 | 39996 ft | 498 kts | 234° |
| 2026-04-30 22:12 | 46.66738 | -81.75121 | 39988 ft | 498 kts | 234° |
| 2026-04-30 22:13 | 46.62705 | -81.83312 | 39993 ft | 497 kts | 234° |
| 2026-04-30 22:13 | 46.58672 | -81.91481 | 40002 ft | 497 kts | 234° |
| 2026-04-30 22:14 | 46.54632 | -81.99640 | 39998 ft | 497 kts | 234° |
| 2026-04-30 22:14 | 46.50581 | -82.07796 | 39998 ft | 498 kts | 234° |
| 2026-04-30 22:15 | 46.46529 | -82.15932 | 40000 ft | 498 kts | 234° |
| 2026-04-30 22:15 | 46.42468 | -82.24062 | 39999 ft | 498 kts | 234° |
| 2026-04-30 22:16 | 46.38401 | -82.32179 | 39997 ft | 498 kts | 234° |
| 2026-04-30 22:17 | 46.30266 | -82.48344 | 39994 ft | 498 kts | 234° |
| 2026-04-30 22:17 | 46.24138 | -82.60462 | 40001 ft | 497 kts | 234° |
| 2026-04-30 22:18 | 46.18005 | -82.72538 | 40001 ft | 497 kts | 234° |
| 2026-04-30 22:19 | 46.11858 | -82.84587 | 40003 ft | 497 kts | 234° |
| 2026-04-30 22:20 | 46.05706 | -82.96596 | 40003 ft | 497 kts | 234° |
| 2026-04-30 22:20 | 45.99538 | -83.08586 | 40007 ft | 497 kts | 234° |
| 2026-04-30 22:21 | 45.95445 | -83.16513 | 40002 ft | 496 kts | 234° |
| 2026-04-30 22:21 | 45.91322 | -83.24475 | 40012 ft | 496 kts | 234° |
| 2026-04-30 22:22 | 45.87205 | -83.32405 | 40016 ft | 495 kts | 234° |
| 2026-04-30 22:22 | 45.83077 | -83.40332 | 40015 ft | 496 kts | 234° |
| 2026-04-30 22:23 | 45.78946 | -83.48243 | 40021 ft | 496 kts | 234° |
| 2026-04-30 22:23 | 45.74812 | -83.56137 | 40022 ft | 495 kts | 234° |
| 2026-04-30 22:24 | 45.70676 | -83.64014 | 40024 ft | 495 kts | 234° |
| 2026-04-30 22:24 | 45.66536 | -83.71877 | 40028 ft | 495 kts | 234° |
| 2026-04-30 22:25 | 45.62414 | -83.79685 | 40028 ft | 495 kts | 234° |
| 2026-04-30 22:25 | 45.58261 | -83.87528 | 40027 ft | 494 kts | 234° |
| 2026-04-30 22:26 | 45.52035 | -83.99247 | 40029 ft | 493 kts | 234° |
| 2026-04-30 22:27 | 45.47882 | -84.07035 | 40030 ft | 493 kts | 234° |
| 2026-04-30 22:27 | 45.41642 | -84.18699 | 40031 ft | 493 kts | 234° |
| 2026-04-30 22:28 | 45.35408 | -84.30304 | 40040 ft | 492 kts | 234° |
| 2026-04-30 22:29 | 45.27083 | -84.45727 | 40040 ft | 491 kts | 234° |
| 2026-04-30 22:31 | 45.12534 | -84.72483 | 40020 ft | 490 kts | 234° |
| 2026-04-30 22:32 | 45.02101 | -84.91516 | 40047 ft | 488 kts | 234° |
| 2026-04-30 22:33 | 44.91663 | -85.10432 | 40063 ft | 488 kts | 234° |
| 2026-04-30 22:35 | 44.81241 | -85.29195 | 40064 ft | 487 kts | 234° |
| 2026-04-30 22:36 | 44.70767 | -85.47930 | 40045 ft | 487 kts | 234° |
| 2026-04-30 22:37 | 44.62433 | -85.62934 | 40047 ft | 487 kts | 235° |
| 2026-04-30 22:38 | 44.54261 | -85.78074 | 40060 ft | 487 kts | 235° |
| 2026-04-30 22:39 | 44.48094 | -85.89373 | 40062 ft | 486 kts | 235° |
| 2026-04-30 22:40 | 44.36441 | -86.10580 | 40068 ft | 485 kts | 234° |
| 2026-04-30 22:41 | 44.26143 | -86.29194 | 40075 ft | 483 kts | 235° |
| 2026-04-30 22:43 | 44.13819 | -86.51315 | 40063 ft | 482 kts | 235° |
| 2026-04-30 22:44 | 44.05573 | -86.66023 | 40067 ft | 481 kts | 235° |
| 2026-04-30 22:45 | 43.93184 | -86.87981 | 40077 ft | 480 kts | 235° |
| 2026-04-30 22:47 | 43.80816 | -87.09736 | 40076 ft | 480 kts | 235° |
| 2026-04-30 22:48 | 43.72538 | -87.24207 | 40076 ft | 478 kts | 235° |
| 2026-04-30 22:49 | 43.60150 | -87.45729 | 40067 ft | 477 kts | 235° |
| 2026-04-30 22:51 | 43.47737 | -87.67138 | 40088 ft | 476 kts | 235° |
| 2026-04-30 22:52 | 43.41519 | -87.77805 | 40094 ft | 477 kts | 234° |
| 2026-04-30 22:53 | 43.33208 | -87.91998 | 40079 ft | 476 kts | 234° |
| 2026-04-30 22:53 | 43.27000 | -88.02556 | 40070 ft | 476 kts | 234° |
| 2026-04-30 22:55 | 43.16582 | -88.20188 | 40057 ft | 475 kts | 234° |
| 2026-04-30 22:56 | 43.07024 | -88.32772 | 40053 ft | 485 kts | 219° |
| 2026-04-30 22:57 | 42.92946 | -88.45562 | 40056 ft | 486 kts | 218° |
| 2026-04-30 22:58 | 42.81705 | -88.55740 | 40050 ft | 487 kts | 218° |
| 2026-04-30 22:59 | 42.64759 | -88.71035 | 40043 ft | 487 kts | 218° |